createdAt,value
2022-09-17T00:00:07.129Z,66.13
2022-09-17T00:01:07.123Z,67.02
2022-09-17T00:02:07.225Z,67.89
2022-09-17T00:03:07.192Z,68.78
2022-09-17T00:04:07.121Z,70.63
2022-09-17T00:05:07.104Z,72.02
2022-09-17T00:06:07.072Z,73.08
2022-09-17T00:07:07.062Z,73.59
2022-09-17T00:08:07.053Z,73.66
2022-09-17T00:09:07.074Z,73.21
2022-09-17T00:10:07.034Z,72.83
2022-09-17T00:11:07.022Z,72.08
2022-09-17T00:12:07.001Z,72.26
2022-09-17T00:13:06.987Z,72.02
2022-09-17T00:14:07.019Z,72.64
2022-09-17T00:15:06.987Z,74.77
2022-09-17T00:16:07.055Z,76.54
2022-09-17T00:17:06.954Z,78.18
2022-09-17T00:18:06.933Z,79.51
2022-09-17T00:19:06.934Z,79.74
2022-09-17T00:20:06.910Z,79.74
2022-09-17T00:21:06.892Z,80.35
2022-09-17T00:22:06.880Z,81.36
2022-09-17T00:23:06.881Z,81.44
2022-09-17T00:24:06.863Z,81.60
2022-09-17T00:25:06.869Z,82.72
2022-09-17T00:26:06.844Z,84.21
2022-09-17T00:27:06.833Z,85.50
2022-09-17T00:28:06.821Z,86.73
2022-09-17T00:29:06.804Z,88.74
2022-09-17T00:30:06.813Z,90.27
2022-09-17T00:31:06.834Z,91.45
2022-09-17T00:32:06.777Z,93.27
2022-09-17T00:33:06.751Z,95.39
2022-09-17T00:34:06.752Z,95.74
2022-09-17T00:35:06.788Z,98.15
2022-09-17T00:36:06.732Z,99.84
2022-09-17T00:37:06.717Z,100.73
2022-09-17T00:38:06.709Z,102.26
2022-09-17T00:39:06.690Z,104.10
2022-09-17T00:40:06.706Z,105.61
2022-09-17T00:41:06.678Z,108.12
2022-09-17T00:42:06.693Z,109.39
2022-09-17T00:43:06.642Z,110.83
2022-09-17T00:44:06.632Z,110.97
2022-09-17T00:45:06.612Z,111.93
2022-09-17T00:46:06.692Z,114.53
2022-09-17T00:47:06.602Z,115.23
2022-09-17T00:48:06.594Z,114.84
2022-09-17T00:49:06.574Z,115.31
2022-09-17T00:50:06.568Z,116.19
2022-09-17T00:51:06.552Z,118.07
2022-09-17T00:52:06.554Z,119.24
2022-09-17T00:53:06.522Z,119.92
2022-09-17T00:54:06.530Z,120.78
2022-09-17T00:55:06.502Z,121.39
2022-09-17T00:56:06.502Z,122.54
2022-09-17T00:57:06.484Z,125.94
2022-09-17T00:58:06.497Z,126.41
2022-09-17T00:59:06.464Z,126.79
2022-09-17T01:00:06.452Z,126.69
2022-09-17T01:01:06.476Z,128.63
2022-09-17T01:02:06.458Z,130.13
2022-09-17T01:03:06.430Z,130.23
2022-09-17T01:04:06.405Z,130.23
2022-09-17T01:05:06.385Z,128.54
2022-09-17T01:06:06.390Z,128.34
2022-09-17T01:07:06.365Z,128.83
2022-09-17T01:08:06.377Z,130.03
2022-09-17T01:09:06.345Z,131.45
2022-09-17T01:10:06.339Z,133.22
2022-09-17T01:11:06.331Z,132.59
2022-09-17T01:12:06.305Z,134.71
2022-09-17T01:13:06.327Z,133.54
2022-09-17T01:14:06.294Z,132.59
2022-09-17T01:15:06.276Z,130.63
2022-09-17T01:16:06.298Z,129.13
2022-09-17T01:17:06.257Z,129.93
2022-09-17T01:18:06.247Z,131.66
2022-09-17T01:19:06.239Z,131.45
2022-09-17T01:20:06.221Z,129.73
2022-09-17T01:21:06.206Z,129.53
2022-09-17T01:22:06.195Z,126.60
2022-09-17T01:23:06.175Z,124.35
2022-09-17T01:24:06.185Z,122.36
2022-09-17T01:25:06.158Z,120.87
2022-09-17T01:26:06.148Z,120.00
2022-09-17T01:27:06.127Z,121.30
2022-09-17T01:28:06.128Z,121.57
2022-09-17T01:29:06.107Z,121.30
2022-09-17T01:30:06.129Z,122.27
2022-09-17T01:31:06.138Z,122.01
2022-09-17T01:32:06.079Z,121.74
2022-09-17T01:33:06.072Z,122.72
2022-09-17T01:34:06.056Z,121.13
2022-09-17T01:35:06.060Z,120.18
2022-09-17T01:36:06.038Z,119.07
2022-09-17T01:37:06.016Z,120.00
2022-09-17T01:38:06.018Z,119.49
2022-09-17T01:39:06.009Z,120.52
2022-09-17T01:40:06.055Z,120.18
2022-09-17T01:41:05.968Z,119.49
2022-09-17T01:42:05.964Z,119.83
2022-09-17T01:43:05.950Z,118.82
2022-09-17T01:44:05.942Z,118.56
2022-09-17T01:45:05.948Z,118.56
2022-09-17T01:46:05.924Z,117.98
2022-09-17T01:47:05.908Z,117.24
2022-09-17T01:48:05.902Z,115.39
2022-09-17T01:49:05.877Z,112.91
2022-09-17T01:50:05.888Z,112.16
2022-09-17T01:51:05.859Z,110.90
2022-09-17T01:52:05.849Z,109.67
2022-09-17T01:53:05.837Z,109.24
2022-09-17T01:54:05.830Z,110.83
2022-09-17T01:55:05.831Z,110.61
2022-09-17T01:56:05.805Z,110.32
2022-09-17T01:57:05.789Z,112.38
2022-09-17T01:58:05.780Z,115.55
2022-09-17T01:59:05.769Z,116.67
2022-09-17T02:00:05.786Z,116.75
2022-09-17T02:01:05.765Z,116.27
2022-09-17T02:02:05.786Z,115.07
2022-09-17T02:03:05.721Z,114.92
2022-09-17T02:04:05.720Z,114.76
2022-09-17T02:05:05.695Z,115.07
2022-09-17T02:06:05.708Z,113.44
2022-09-17T02:07:05.669Z,112.99
2022-09-17T02:08:05.663Z,113.14
2022-09-17T02:09:05.652Z,113.44
2022-09-17T02:10:05.648Z,112.46
2022-09-17T02:11:05.620Z,111.79
2022-09-17T02:12:05.639Z,111.27
2022-09-17T02:13:05.609Z,111.49
2022-09-17T02:14:05.595Z,111.05
2022-09-17T02:15:05.588Z,111.05
2022-09-17T02:16:05.649Z,110.39
2022-09-17T02:17:05.573Z,110.46
2022-09-17T02:18:05.550Z,109.24
2022-09-17T02:19:05.532Z,108.61
2022-09-17T02:20:05.535Z,107.84
2022-09-17T02:21:05.514Z,108.19
2022-09-17T02:22:05.524Z,108.61
2022-09-17T02:23:05.486Z,108.12
2022-09-17T02:24:05.480Z,108.47
2022-09-17T02:25:05.466Z,108.54
2022-09-17T02:26:05.463Z,109.74
2022-09-17T02:27:05.466Z,109.67
2022-09-17T02:28:05.438Z,109.53
2022-09-17T02:29:05.422Z,109.96
2022-09-17T02:30:05.412Z,110.10
2022-09-17T02:31:05.437Z,109.39
2022-09-17T02:32:05.389Z,108.47
2022-09-17T02:33:05.387Z,107.36
2022-09-17T02:34:05.372Z,107.43
2022-09-17T02:35:05.354Z,106.54
2022-09-17T02:36:05.334Z,105.94
2022-09-17T02:37:05.345Z,105.34
2022-09-17T02:38:05.322Z,106.07
2022-09-17T02:39:05.307Z,105.67
2022-09-17T02:40:05.351Z,107.02
2022-09-17T02:41:05.283Z,109.67
2022-09-17T02:42:05.292Z,111.79
2022-09-17T02:43:05.254Z,112.83
2022-09-17T02:44:05.251Z,114.14
2022-09-17T02:45:05.247Z,115.23
2022-09-17T02:46:05.223Z,115.71
2022-09-17T02:47:05.210Z,117.40
2022-09-17T02:48:05.217Z,117.98
2022-09-17T02:49:05.185Z,119.15
2022-09-17T02:50:05.188Z,119.41
2022-09-17T02:51:05.176Z,120.35
2022-09-17T02:52:05.165Z,120.61
2022-09-17T02:53:05.143Z,121.92
2022-09-17T02:54:05.133Z,122.10
2022-09-17T02:55:05.116Z,122.01
2022-09-17T02:56:05.106Z,122.54
2022-09-17T02:57:05.111Z,123.26
2022-09-17T02:58:05.091Z,124.44
2022-09-17T02:59:05.064Z,123.71
2022-09-17T03:00:05.138Z,124.44
2022-09-17T03:01:05.073Z,124.44
2022-09-17T03:02:05.138Z,126.03
2022-09-17T03:03:05.024Z,125.84
2022-09-17T03:04:05.017Z,126.89
2022-09-17T03:05:05.002Z,127.37
2022-09-17T03:06:04.993Z,127.08
2022-09-17T03:07:04.998Z,126.31
2022-09-17T03:08:04.979Z,126.03
2022-09-17T03:09:04.955Z,126.60
2022-09-17T03:10:04.948Z,127.17
2022-09-17T03:11:04.937Z,126.79
2022-09-17T03:12:04.937Z,126.22
2022-09-17T03:13:04.912Z,125.84
2022-09-17T03:14:04.898Z,126.12
2022-09-17T03:15:04.896Z,124.72
2022-09-17T03:16:04.929Z,124.54
2022-09-17T03:17:04.862Z,126.41
2022-09-17T03:18:04.876Z,125.19
2022-09-17T03:19:04.840Z,125.65
2022-09-17T03:20:04.835Z,125.28
2022-09-17T03:21:04.827Z,125.00
2022-09-17T03:22:04.827Z,125.00
2022-09-17T03:23:04.807Z,126.22
2022-09-17T03:24:04.782Z,126.22
2022-09-17T03:25:04.773Z,126.60
2022-09-17T03:26:04.760Z,126.98
2022-09-17T03:27:04.785Z,127.08
2022-09-17T03:28:04.738Z,126.12
2022-09-17T03:29:04.728Z,125.00
2022-09-17T03:30:04.709Z,125.65
2022-09-17T03:31:04.747Z,125.75
2022-09-17T03:32:04.687Z,125.37
2022-09-17T03:33:04.696Z,124.44
2022-09-17T03:34:04.667Z,123.53
2022-09-17T03:35:04.659Z,122.81
2022-09-17T03:36:04.639Z,122.81
2022-09-17T03:37:04.641Z,120.69
2022-09-17T03:38:04.634Z,118.82
2022-09-17T03:39:04.612Z,118.31
2022-09-17T03:40:04.678Z,117.16
2022-09-17T03:41:04.588Z,117.00
2022-09-17T03:42:04.600Z,115.95
2022-09-17T03:43:04.559Z,117.24
2022-09-17T03:44:04.779Z,116.75
2022-09-17T03:45:04.542Z,115.55
2022-09-17T03:46:04.619Z,114.29
2022-09-17T03:47:04.524Z,113.21
2022-09-17T03:48:04.512Z,110.83
2022-09-17T03:49:04.494Z,109.81
2022-09-17T03:50:04.482Z,108.26
2022-09-17T03:51:04.487Z,107.77
2022-09-17T03:52:04.475Z,107.22
2022-09-17T03:53:04.463Z,107.43
2022-09-17T03:54:04.432Z,107.15
2022-09-17T03:55:04.436Z,106.81
2022-09-17T03:56:04.412Z,105.54
2022-09-17T03:57:04.429Z,105.81
2022-09-17T03:58:04.387Z,104.04
2022-09-17T03:59:04.370Z,104.29
2022-09-17T04:00:04.371Z,103.72
2022-09-17T04:01:04.360Z,103.21
2022-09-17T04:02:04.519Z,102.70
2022-09-17T04:03:04.329Z,101.40
2022-09-17T04:04:04.322Z,100.61
2022-09-17T04:05:04.310Z,100.01
2022-09-17T04:06:04.293Z,99.42
2022-09-17T04:07:04.302Z,99.07
2022-09-17T04:08:04.278Z,98.38
2022-09-17T04:09:04.268Z,99.36
2022-09-17T04:10:04.253Z,99.54
2022-09-17T04:11:04.231Z,100.13
2022-09-17T04:12:04.243Z,100.19
2022-09-17T04:13:04.225Z,100.07
2022-09-17T04:14:04.200Z,99.42
2022-09-17T04:15:04.196Z,99.72
2022-09-17T04:16:04.212Z,99.42
2022-09-17T04:17:04.202Z,99.48
2022-09-17T04:18:04.153Z,99.13
2022-09-17T04:19:04.144Z,98.55
2022-09-17T04:20:04.147Z,98.55
2022-09-17T04:21:04.134Z,98.15
2022-09-17T04:22:04.116Z,97.24
2022-09-17T04:23:04.132Z,97.24
2022-09-17T04:24:04.100Z,97.29
2022-09-17T04:25:04.076Z,96.90
2022-09-17T04:26:04.070Z,97.01
2022-09-17T04:27:04.054Z,96.40
2022-09-17T04:28:04.064Z,95.96
2022-09-17T04:29:04.040Z,95.15
2022-09-17T04:30:04.021Z,93.71
2022-09-17T04:31:04.057Z,94.53
2022-09-17T04:32:04.003Z,94.11
2022-09-17T04:33:03.989Z,93.48
2022-09-17T04:34:03.968Z,92.96
2022-09-17T04:35:03.973Z,91.45
2022-09-17T04:36:03.956Z,89.60
2022-09-17T04:37:03.958Z,88.09
2022-09-17T04:38:03.926Z,86.55
2022-09-17T04:39:03.914Z,85.41
2022-09-17T04:40:07.725Z,84.63
2022-09-17T04:41:03.889Z,83.38
2022-09-17T04:42:03.884Z,82.56
2022-09-17T04:43:03.889Z,81.60
2022-09-17T04:44:03.852Z,80.89
2022-09-17T04:45:03.857Z,80.12
2022-09-17T04:46:03.832Z,78.99
2022-09-17T04:47:03.840Z,77.25
2022-09-17T04:48:03.807Z,76.33
2022-09-17T04:49:03.797Z,76.68
2022-09-17T04:50:03.787Z,75.58
2022-09-17T04:51:03.782Z,73.85
2022-09-17T04:52:03.787Z,72.70
2022-09-17T04:53:03.759Z,71.89
2022-09-17T04:54:03.736Z,71.04
2022-09-17T04:55:03.735Z,68.78
2022-09-17T04:56:03.715Z,67.94
2022-09-17T04:57:03.719Z,67.34
2022-09-17T04:58:03.696Z,66.18
2022-09-17T04:59:03.679Z,65.05
2022-09-17T05:00:03.667Z,63.72
2022-09-17T05:01:03.705Z,62.53
2022-09-17T05:02:03.727Z,61.71
2022-09-17T05:03:03.641Z,62.07
2022-09-17T05:04:03.627Z,62.91
2022-09-17T05:05:03.616Z,63.58
2022-09-17T05:06:03.596Z,63.82
2022-09-17T05:07:03.599Z,63.72
2022-09-17T05:08:03.578Z,64.21
2022-09-17T05:09:03.572Z,64.26
2022-09-17T05:10:03.557Z,65.00
2022-09-17T05:11:03.536Z,66.07
2022-09-17T05:12:03.548Z,67.13
2022-09-17T05:13:03.527Z,67.89
2022-09-17T05:14:03.516Z,67.72
2022-09-17T05:15:03.500Z,67.56
2022-09-17T05:16:03.519Z,67.94
2022-09-17T05:17:03.478Z,67.08
2022-09-17T05:18:03.477Z,66.70
2022-09-17T05:19:03.448Z,65.66
2022-09-17T05:20:03.432Z,64.35
2022-09-17T05:21:03.429Z,63.58
2022-09-17T05:22:03.430Z,62.44
2022-09-17T05:23:03.396Z,61.12
2022-09-17T05:24:03.395Z,60.47
2022-09-17T05:25:03.384Z,60.77
2022-09-17T05:26:03.370Z,60.25
2022-09-17T05:27:03.379Z,60.08
2022-09-17T05:28:03.351Z,60.47
2022-09-17T05:29:03.339Z,61.04
2022-09-17T05:30:03.324Z,60.82
2022-09-17T05:31:03.364Z,60.47
2022-09-17T05:32:03.292Z,59.78
2022-09-17T05:33:03.377Z,58.53
2022-09-17T05:34:03.282Z,56.52
2022-09-17T05:35:05.644Z,55.08
2022-09-17T05:36:03.256Z,53.50
2022-09-17T05:37:03.262Z,54.44
2022-09-17T05:38:03.231Z,55.66
2022-09-17T05:39:03.228Z,56.14
2022-09-17T05:40:03.267Z,56.64
2022-09-17T05:41:03.206Z,58.12
2022-09-17T05:42:03.201Z,59.40
2022-09-17T05:43:03.175Z,60.64
2022-09-17T05:44:03.163Z,61.80
2022-09-17T05:45:03.150Z,62.53
2022-09-17T05:46:03.129Z,62.58
2022-09-17T05:47:03.128Z,62.81
2022-09-17T05:48:03.124Z,63.34
2022-09-17T05:49:03.102Z,63.05
2022-09-17T05:50:03.096Z,62.81
2022-09-17T05:51:03.086Z,62.53
2022-09-17T05:52:03.081Z,62.53
2022-09-17T05:53:03.061Z,63.19
2022-09-17T05:54:03.043Z,63.96
2022-09-17T05:55:03.082Z,63.96
2022-09-17T05:56:03.026Z,64.01
2022-09-17T05:57:03.035Z,63.96
2022-09-17T05:58:03.002Z,64.65
2022-09-17T05:59:02.994Z,64.90
2022-09-17T06:00:02.977Z,65.76
2022-09-17T06:01:02.962Z,65.66
2022-09-17T06:02:03.021Z,65.92
2022-09-17T06:03:02.998Z,66.54
2022-09-17T06:04:02.930Z,66.49
2022-09-17T06:05:02.919Z,65.97
2022-09-17T06:06:02.909Z,65.92
2022-09-17T06:07:02.934Z,65.61
2022-09-17T06:08:03.202Z,66.18
2022-09-17T06:09:02.923Z,66.39
2022-09-17T06:10:02.879Z,66.92
2022-09-17T06:11:02.860Z,67.08
2022-09-17T06:12:02.876Z,68.95
2022-09-17T06:13:02.832Z,70.27
2022-09-17T06:14:02.836Z,71.59
2022-09-17T06:15:02.846Z,73.27
2022-09-17T06:16:02.867Z,75.11
2022-09-17T06:17:02.821Z,78.32
2022-09-17T06:18:02.795Z,81.20
2022-09-17T06:19:02.764Z,84.04
2022-09-17T06:20:02.757Z,86.73
2022-09-17T06:21:02.757Z,89.03
2022-09-17T06:22:02.747Z,91.25
2022-09-17T06:23:02.729Z,94.21
2022-09-17T06:24:02.736Z,94.88
2022-09-17T06:25:02.706Z,97.80
2022-09-17T06:26:02.684Z,100.19
2022-09-17T06:27:02.708Z,103.53
2022-09-17T06:28:02.661Z,105.21
2022-09-17T06:29:02.645Z,108.19
2022-09-17T06:30:02.639Z,112.83
2022-09-17T06:31:02.717Z,115.79
2022-09-17T06:32:02.630Z,118.48
2022-09-17T06:33:02.622Z,120.00
2022-09-17T06:34:02.613Z,119.92
2022-09-17T06:35:02.586Z,122.01
2022-09-17T06:36:02.565Z,124.63
2022-09-17T06:37:02.596Z,128.83
2022-09-17T06:38:02.547Z,130.03
2022-09-17T06:39:02.542Z,130.53
2022-09-17T06:40:02.567Z,132.90
2022-09-17T06:41:02.527Z,133.86
2022-09-17T06:42:02.518Z,135.04
2022-09-17T06:43:02.495Z,136.35
2022-09-17T06:44:02.476Z,137.47
2022-09-17T06:45:07.675Z,139.06
2022-09-17T06:46:03.456Z,138.95
2022-09-17T06:47:02.459Z,138.26
2022-09-17T06:48:02.455Z,137.36
2022-09-17T06:49:02.425Z,139.29
2022-09-17T06:50:02.408Z,141.16
2022-09-17T06:51:02.408Z,142.12
2022-09-17T06:52:02.407Z,142.00
2022-09-17T06:53:02.392Z,142.72
2022-09-17T06:54:02.368Z,146.07
2022-09-17T06:55:02.362Z,146.32
2022-09-17T06:56:06.242Z,147.87
2022-09-17T06:57:02.353Z,148.91
2022-09-17T06:58:02.309Z,149.98
2022-09-17T06:59:02.330Z,149.98
2022-09-17T07:00:02.294Z,150.92
2022-09-17T07:01:02.363Z,151.46
2022-09-17T07:02:02.334Z,151.60
2022-09-17T07:03:02.287Z,150.78
2022-09-17T07:04:02.251Z,150.65
2022-09-17T07:05:02.260Z,149.98
2022-09-17T07:06:02.229Z,149.98
2022-09-17T07:07:02.247Z,150.24
2022-09-17T07:08:02.228Z,150.11
2022-09-17T07:09:02.201Z,148.52
2022-09-17T07:10:02.180Z,149.98
2022-09-17T07:11:02.170Z,150.24
2022-09-17T07:12:02.192Z,149.84
2022-09-17T07:13:02.158Z,151.46
2022-09-17T07:14:02.135Z,151.87
2022-09-17T07:15:02.130Z,153.26
2022-09-17T07:16:02.229Z,154.10
2022-09-17T07:17:02.112Z,155.24
2022-09-17T07:18:02.109Z,157.27
2022-09-17T07:19:02.091Z,158.76
2022-09-17T07:20:02.091Z,161.35
2022-09-17T07:21:02.062Z,161.97
2022-09-17T07:22:02.070Z,162.28
2022-09-17T07:23:02.079Z,164.51
2022-09-17T07:24:02.013Z,167.96
2022-09-17T07:25:02.036Z,169.31
2022-09-17T07:26:02.014Z,170.34
2022-09-17T07:27:02.031Z,171.03
2022-09-17T07:28:01.972Z,172.79
2022-09-17T07:29:01.973Z,176.23
2022-09-17T07:30:01.961Z,180.20
2022-09-17T07:31:02.055Z,182.94
2022-09-17T07:32:01.940Z,186.18
2022-09-17T07:33:01.948Z,187.45
2022-09-17T07:34:01.922Z,188.30
2022-09-17T07:35:01.892Z,187.45
2022-09-17T07:36:01.882Z,190.47
2022-09-17T07:37:01.884Z,193.48
2022-09-17T07:38:01.864Z,196.35
2022-09-17T07:39:01.857Z,196.24
2022-09-17T07:40:01.915Z,199.07
2022-09-17T07:41:01.832Z,199.31
2022-09-17T07:42:01.837Z,200.89
2022-09-17T07:43:01.805Z,202.24
2022-09-17T07:44:01.793Z,204.75
2022-09-17T07:45:02.393Z,207.44
2022-09-17T07:46:01.776Z,210.08
2022-09-17T07:47:01.850Z,212.10
2022-09-17T07:48:01.766Z,213.20
2022-09-17T07:49:01.752Z,214.72
2022-09-17T07:50:01.731Z,216.55
2022-09-17T07:51:01.831Z,218.84
2022-09-17T07:52:01.755Z,219.86
2022-09-17T07:53:01.731Z,223.13
2022-09-17T07:54:01.693Z,224.34
2022-09-17T07:55:01.682Z,225.87
2022-09-17T07:56:01.670Z,226.18
2022-09-17T07:57:01.778Z,228.21
2022-09-17T07:58:01.688Z,227.74
2022-09-17T07:59:01.782Z,225.87
2022-09-17T08:00:01.630Z,223.13
2022-09-17T08:01:01.630Z,223.13
2022-09-17T08:02:01.730Z,222.68
2022-09-17T08:03:01.696Z,222.53
2022-09-17T08:04:01.577Z,222.53
2022-09-17T08:05:01.598Z,221.93
2022-09-17T08:06:01.558Z,221.48
2022-09-17T08:07:01.556Z,222.53
2022-09-17T08:08:01.542Z,221.63
2022-09-17T08:09:01.517Z,222.53
2022-09-17T08:10:01.510Z,223.13
2022-09-17T08:11:01.560Z,222.68
2022-09-17T08:12:01.534Z,221.78
2022-09-17T08:13:01.495Z,223.58
2022-09-17T08:14:01.478Z,225.41
2022-09-17T08:15:01.451Z,225.56
2022-09-17T08:16:01.490Z,223.43
2022-09-17T08:17:01.434Z,223.43
2022-09-17T08:18:01.433Z,225.41
2022-09-17T08:19:01.421Z,225.87
2022-09-17T08:20:01.384Z,227.42
2022-09-17T08:21:01.385Z,227.27
2022-09-17T08:22:01.420Z,226.96
2022-09-17T08:23:01.375Z,229.96
2022-09-17T08:24:01.339Z,228.52
2022-09-17T08:25:01.335Z,228.37
2022-09-17T08:26:01.326Z,227.74
2022-09-17T08:27:01.341Z,227.42
2022-09-17T08:28:01.311Z,222.98
2022-09-17T08:29:01.382Z,224.03
2022-09-17T08:30:01.303Z,222.23
2022-09-17T08:31:01.383Z,221.63
2022-09-17T08:32:01.319Z,220.01
2022-09-17T08:33:01.259Z,219.13
2022-09-17T08:34:01.239Z,220.45
2022-09-17T08:35:01.240Z,220.15
2022-09-17T08:36:01.241Z,221.63
2022-09-17T08:37:01.225Z,219.86
2022-09-17T08:38:01.175Z,221.18
2022-09-17T08:39:01.187Z,219.86
2022-09-17T08:40:01.245Z,218.70
2022-09-17T08:41:01.225Z,219.13
2022-09-17T08:42:01.199Z,220.15
2022-09-17T08:43:01.145Z,220.60
2022-09-17T08:44:01.239Z,223.28
2022-09-17T08:45:01.167Z,226.33
2022-09-17T08:46:01.096Z,227.27
2022-09-17T08:47:01.103Z,227.58
2022-09-17T08:48:01.072Z,229.00
2022-09-17T08:49:01.051Z,226.49
2022-09-17T08:50:01.040Z,225.41
2022-09-17T08:51:05.383Z,225.41
2022-09-17T08:52:02.039Z,221.93
2022-09-17T08:53:01.008Z,219.13
2022-09-17T08:54:01.043Z,218.84
2022-09-17T08:55:01.021Z,222.53
2022-09-17T08:56:01.028Z,224.95
2022-09-17T08:57:00.982Z,225.26
2022-09-17T08:58:00.974Z,227.58
2022-09-17T08:59:00.984Z,226.02
2022-09-17T09:00:00.922Z,229.64
2022-09-17T09:01:00.943Z,231.08
2022-09-17T09:02:01.074Z,230.28
2022-09-17T09:03:01.021Z,232.71
2022-09-17T09:04:00.895Z,231.40
2022-09-17T09:05:00.892Z,232.22
2022-09-17T09:06:00.909Z,234.69
2022-09-17T09:07:00.884Z,236.03
2022-09-17T09:08:00.864Z,237.73
2022-09-17T09:09:00.843Z,239.80
2022-09-17T09:10:00.816Z,241.20
2022-09-17T09:11:00.814Z,242.26
2022-09-17T09:12:00.986Z,248.07
2022-09-17T09:13:00.768Z,248.63
2022-09-17T09:14:00.781Z,250.33
2022-09-17T09:15:00.854Z,254.38
2022-09-17T09:16:00.790Z,259.57
2022-09-17T09:17:00.846Z,262.45
2022-09-17T09:18:00.736Z,263.71
2022-09-17T09:19:00.777Z,268.42
2022-09-17T09:20:00.723Z,270.40
2022-09-17T09:21:00.700Z,274.44
2022-09-17T09:22:00.715Z,276.50
2022-09-17T09:23:00.678Z,281.93
2022-09-17T09:24:00.659Z,287.07
2022-09-17T09:25:00.656Z,287.07
2022-09-17T09:26:00.649Z,287.07
2022-09-17T09:27:00.633Z,292.66
2022-09-17T09:28:00.630Z,291.88
2022-09-17T09:29:00.604Z,295.01
2022-09-17T09:30:00.569Z,299.55
2022-09-17T09:31:00.623Z,302.29
2022-09-17T09:32:00.592Z,312.29
2022-09-17T09:33:00.592Z,313.18
2022-09-17T09:34:00.521Z,310.53
2022-09-17T09:35:00.519Z,319.23
2022-09-17T09:36:00.533Z,317.08
2022-09-17T09:37:00.510Z,308.21
2022-09-17T09:38:00.495Z,311.70
2022-09-17T09:39:00.480Z,321.71
2022-09-17T09:40:00.490Z,314.97
2022-09-17T09:41:00.439Z,314.07
2022-09-17T09:42:00.419Z,310.24
2022-09-17T09:43:00.452Z,310.24
2022-09-17T09:44:04.059Z,304.24
2022-09-17T09:45:04.766Z,304.80
2022-09-17T09:46:00.692Z,310.82
2022-09-17T09:47:00.457Z,306.21
2022-09-17T09:48:00.374Z,302.57
2022-09-17T09:49:00.369Z,301.19
2022-09-17T09:50:00.362Z,296.86
2022-09-17T09:51:06.626Z,291.37
2022-09-17T09:52:01.341Z,289.08
2022-09-17T09:53:00.294Z,288.32
2022-09-17T09:54:00.304Z,290.35
2022-09-17T09:55:00.285Z,286.07
2022-09-17T09:56:00.274Z,284.11
2022-09-17T09:57:00.274Z,281.21
2022-09-17T09:58:00.257Z,278.60
2022-09-17T09:59:00.300Z,278.36
2022-09-17T10:00:00.237Z,280.25
2022-09-17T10:01:00.212Z,277.66
2022-09-17T10:02:00.384Z,279.07
2022-09-17T10:03:00.252Z,282.65
2022-09-17T10:04:00.194Z,283.13
2022-09-17T10:05:00.186Z,281.69
2022-09-17T10:06:00.153Z,281.93
2022-09-17T10:07:00.149Z,283.62
2022-09-17T10:08:00.171Z,283.62
2022-09-17T10:09:00.165Z,284.84
2022-09-17T10:10:00.123Z,285.09
2022-09-17T10:11:00.114Z,285.83
2022-09-17T10:12:00.149Z,287.32
2022-09-17T10:13:00.087Z,291.37
2022-09-17T10:14:00.175Z,293.44
2022-09-17T10:15:00.066Z,293.44
2022-09-17T10:16:00.110Z,294.22
2022-09-17T10:17:00.091Z,292.40
2022-09-17T10:18:00.089Z,297.13
2022-09-17T10:19:00.010Z,295.27
2022-09-17T10:20:00.011Z,296.07
2022-09-17T10:21:00.002Z,295.01
2022-09-17T10:21:59.986Z,295.54
2022-09-17T10:22:59.982Z,300.92
2022-09-17T10:23:59.960Z,299.83
2022-09-17T10:24:59.955Z,306.50
2022-09-17T10:25:59.935Z,306.50
2022-09-17T10:26:59.929Z,308.21
2022-09-17T10:27:59.949Z,307.92
2022-09-17T10:29:00.000Z,309.08
2022-09-17T10:29:59.916Z,308.79
2022-09-17T10:30:59.922Z,306.21
2022-09-17T10:31:59.954Z,303.12
2022-09-17T10:32:59.876Z,303.96
2022-09-17T10:33:59.893Z,304.52
2022-09-17T10:34:59.840Z,302.02
2022-09-17T10:35:59.826Z,300.37
2022-09-17T10:36:59.820Z,300.92
2022-09-17T10:37:59.796Z,301.74
2022-09-17T10:38:59.846Z,303.68
2022-09-17T10:39:59.810Z,304.52
2022-09-17T10:40:59.761Z,307.92
2022-09-17T10:41:59.760Z,311.11
2022-09-17T10:42:59.750Z,310.24
2022-09-17T10:43:59.814Z,309.66
2022-09-17T10:44:59.721Z,314.07
2022-09-17T10:45:59.702Z,316.17
2022-09-17T10:46:59.743Z,314.97
2022-09-17T10:47:59.693Z,319.84
2022-09-17T10:48:59.694Z,322.97
2022-09-17T10:49:59.665Z,320.15
2022-09-17T10:50:59.659Z,316.17
2022-09-17T10:51:59.667Z,313.77
2022-09-17T10:52:59.643Z,315.87
2022-09-17T10:53:59.646Z,318.30
2022-09-17T10:54:59.641Z,319.84
2022-09-17T10:55:59.612Z,322.34
2022-09-17T10:56:59.589Z,329.40
2022-09-17T10:57:59.592Z,333.39
2022-09-17T10:58:59.615Z,332.39
2022-09-17T10:59:59.567Z,334.40
2022-09-17T11:00:59.571Z,333.05
2022-09-17T11:01:59.581Z,331.72
2022-09-17T11:02:59.613Z,331.05
2022-09-17T11:03:59.537Z,327.45
2022-09-17T11:04:59.558Z,324.23
2022-09-17T11:05:59.509Z,323.60
2022-09-17T11:06:59.464Z,322.65
2022-09-17T11:07:59.466Z,322.34
2022-09-17T11:08:59.443Z,325.83
2022-09-17T11:09:59.450Z,325.51
2022-09-17T11:10:59.451Z,326.48
2022-09-17T11:11:59.423Z,325.83
2022-09-17T11:12:59.404Z,333.05
2022-09-17T11:13:59.469Z,325.83
2022-09-17T11:14:59.413Z,323.92
2022-09-17T11:15:59.400Z,324.55
2022-09-17T11:16:59.364Z,329.08
2022-09-17T11:17:59.346Z,325.83
2022-09-17T11:18:59.334Z,323.92
2022-09-17T11:19:59.364Z,323.28
2022-09-17T11:20:59.327Z,322.97
2022-09-17T11:21:59.315Z,320.77
2022-09-17T11:22:59.332Z,312.58
2022-09-17T11:23:59.289Z,304.80
2022-09-17T11:24:59.267Z,294.75
2022-09-17T11:26:00.837Z,284.35
2022-09-17T11:26:59.257Z,274.67
2022-09-17T11:27:59.257Z,262.24
2022-09-17T11:28:59.348Z,247.52
2022-09-17T11:29:59.239Z,239.45
2022-09-17T11:30:59.223Z,229.48
2022-09-17T11:31:59.267Z,221.93
2022-09-17T11:32:59.183Z,213.06
2022-09-17T11:33:59.179Z,205.00
2022-09-17T11:34:59.151Z,198.36
2022-09-17T11:35:59.167Z,194.62
2022-09-17T11:36:59.176Z,191.24
2022-09-17T11:38:00.081Z,185.35
2022-09-17T11:38:59.179Z,180.20
2022-09-17T11:39:59.155Z,174.77
2022-09-17T11:40:59.138Z,169.99
2022-09-17T11:41:59.130Z,164.51
2022-09-17T11:42:59.085Z,160.42
2022-09-17T11:43:59.159Z,155.67
2022-09-17T11:44:59.066Z,151.74
2022-09-17T11:45:59.060Z,151.60
2022-09-17T11:46:59.098Z,152.29
2022-09-17T11:47:59.025Z,151.05
2022-09-17T11:48:59.086Z,149.05
2022-09-17T11:49:58.994Z,147.35
2022-09-17T11:50:59.126Z,146.71
2022-09-17T11:51:58.962Z,142.96
2022-09-17T11:52:58.971Z,141.76
2022-09-17T11:53:58.987Z,137.02
2022-09-17T11:54:58.979Z,137.69
2022-09-17T11:55:58.977Z,136.91
2022-09-17T11:56:58.962Z,137.36
2022-09-17T11:57:58.894Z,135.26
2022-09-17T11:58:58.931Z,133.33
2022-09-17T11:59:58.900Z,133.54
2022-09-17T12:00:58.869Z,132.70
2022-09-17T12:01:58.923Z,130.33
2022-09-17T12:02:58.931Z,131.24
2022-09-17T12:03:58.830Z,130.43
2022-09-17T12:04:58.866Z,129.63
2022-09-17T12:05:58.852Z,130.94
2022-09-17T12:06:58.829Z,133.22
2022-09-17T12:07:58.767Z,137.13
2022-09-17T12:08:58.802Z,138.03
2022-09-17T12:09:58.772Z,137.81
2022-09-17T12:10:58.779Z,138.03
2022-09-17T12:11:58.743Z,139.99
2022-09-17T12:12:58.734Z,143.82
2022-09-17T12:13:58.878Z,145.82
2022-09-17T12:14:58.744Z,151.60
2022-09-17T12:15:58.765Z,156.40
2022-09-17T12:16:58.697Z,160.73
2022-09-17T12:18:20.613Z,166.13
2022-09-17T12:18:59.675Z,172.26
2022-09-17T12:19:58.661Z,174.95
2022-09-17T12:20:58.669Z,179.81
2022-09-17T12:21:58.701Z,184.75
2022-09-17T12:22:58.618Z,189.82
2022-09-17T12:23:58.612Z,196.59
2022-09-17T12:24:58.595Z,201.99
2022-09-17T12:25:58.627Z,207.31
2022-09-17T12:26:58.616Z,209.81
2022-09-17T12:27:58.541Z,209.81
2022-09-17T12:28:58.761Z,215.42
2022-09-17T12:30:00.639Z,219.13
2022-09-17T12:30:58.604Z,220.45
2022-09-17T12:31:58.533Z,223.58
2022-09-17T12:32:58.506Z,226.65